createdAt,value
2023-05-09T00:00:33.557Z,50.852859
2023-05-09T00:01:33.572Z,50.852844
2023-05-09T00:02:33.579Z,50.852852
2023-05-09T00:03:33.556Z,50.852840
2023-05-09T00:04:33.571Z,50.852833
2023-05-09T00:05:33.553Z,50.852875
2023-05-09T00:06:33.629Z,50.852856
2023-05-09T00:07:33.520Z,50.852844
2023-05-09T00:08:33.492Z,50.852852
2023-05-09T00:09:33.504Z,50.852871
2023-05-09T00:10:33.495Z,50.852852
2023-05-09T00:11:33.495Z,50.852879
2023-05-09T00:12:33.530Z,50.852890
2023-05-09T00:13:33.503Z,50.852859
2023-05-09T00:14:33.613Z,50.852844
2023-05-09T00:15:33.462Z,50.852837
2023-05-09T00:16:33.467Z,50.852837
2023-05-09T00:17:33.498Z,50.852837
2023-05-09T00:18:33.422Z,50.852856
2023-05-09T00:19:33.489Z,50.852879
2023-05-09T00:20:33.415Z,50.852863
2023-05-09T00:21:33.446Z,50.852863
2023-05-09T00:22:33.489Z,50.852859
2023-05-09T00:23:33.420Z,50.852886
2023-05-09T00:24:33.388Z,50.852825
2023-05-09T00:25:33.450Z,50.852882
2023-05-09T00:26:33.410Z,50.852852
2023-05-09T00:27:33.387Z,50.852863
2023-05-09T00:28:33.365Z,50.852848
2023-05-09T00:29:33.366Z,50.852882
2023-05-09T00:30:33.372Z,50.852852
2023-05-09T00:31:33.390Z,50.852875
2023-05-09T00:32:33.418Z,50.852840
2023-05-09T00:33:33.398Z,50.852844
2023-05-09T00:34:33.330Z,50.852867
2023-05-09T00:35:33.350Z,50.852837
2023-05-09T00:36:33.313Z,50.852863
2023-05-09T00:37:33.323Z,50.852829
2023-05-09T00:38:33.385Z,50.852848
2023-05-09T00:39:33.327Z,50.852768
2023-05-09T00:40:33.275Z,50.852795
2023-05-09T00:41:33.298Z,50.852802
2023-05-09T00:42:33.283Z,50.852818
2023-05-09T00:43:33.301Z,50.852818
2023-05-09T00:44:33.302Z,50.852886
2023-05-09T00:45:33.278Z,50.852783
2023-05-09T00:46:33.277Z,50.852955
2023-05-09T00:47:33.416Z,50.852909
2023-05-09T00:48:33.262Z,50.852856
2023-05-09T00:49:33.282Z,50.852871
2023-05-09T00:50:33.239Z,50.852886
2023-05-09T00:51:33.244Z,50.852867
2023-05-09T00:52:33.238Z,50.852810
2023-05-09T00:53:33.286Z,50.852848
2023-05-09T00:54:33.286Z,50.852844
2023-05-09T00:55:33.241Z,50.852821
2023-05-09T00:56:33.176Z,50.852863
2023-05-09T00:57:33.196Z,50.852852
2023-05-09T00:58:33.192Z,50.852837
2023-05-09T00:59:33.185Z,50.852837
2023-05-09T01:00:33.178Z,50.852848
2023-05-09T01:01:33.235Z,50.852810
2023-05-09T01:02:33.264Z,50.852859
2023-05-09T01:03:33.234Z,50.852814
2023-05-09T01:04:33.142Z,50.852852
2023-05-09T01:05:33.207Z,50.852863
2023-05-09T01:06:33.124Z,50.852909
2023-05-09T01:07:33.148Z,50.852867
2023-05-09T01:08:33.109Z,50.852974
2023-05-09T01:09:33.112Z,50.852901
2023-05-09T01:10:33.199Z,50.852898
2023-05-09T01:11:33.129Z,50.852882
2023-05-09T01:12:33.086Z,50.852890
2023-05-09T01:13:33.120Z,50.852879
2023-05-09T01:14:33.088Z,50.852863
2023-05-09T01:15:33.134Z,50.852837
2023-05-09T01:16:33.060Z,50.852753
2023-05-09T01:17:33.114Z,50.852875
2023-05-09T01:18:33.082Z,50.852863
2023-05-09T01:19:33.102Z,50.852837
2023-05-09T01:20:33.027Z,50.852901
2023-05-09T01:21:33.059Z,50.852859
2023-05-09T01:22:33.026Z,50.852905
2023-05-09T01:23:33.031Z,50.852932
2023-05-09T01:24:33.019Z,50.852890
2023-05-09T01:25:33.048Z,50.852955
2023-05-09T01:26:33.089Z,50.852879
2023-05-09T01:27:33.009Z,50.852886
2023-05-09T01:28:32.987Z,50.852894
2023-05-09T01:29:33.018Z,50.852879
2023-05-09T01:30:32.987Z,50.852859
2023-05-09T01:31:33.006Z,50.852833
2023-05-09T01:32:32.977Z,50.852844
2023-05-09T01:33:32.976Z,50.852852
2023-05-09T01:34:32.951Z,50.852837
2023-05-09T01:35:32.967Z,50.852867
2023-05-09T01:36:32.962Z,50.852848
2023-05-09T01:37:33.008Z,50.852848
2023-05-09T01:38:32.924Z,50.852848
2023-05-09T01:39:32.936Z,50.852859
2023-05-09T01:40:32.893Z,50.852863
2023-05-09T01:41:32.931Z,50.852871
2023-05-09T01:42:33.011Z,50.852875
2023-05-09T01:43:32.897Z,50.852879
2023-05-09T01:44:32.875Z,50.852844
2023-05-09T01:45:32.921Z,50.852852
2023-05-09T01:46:32.874Z,50.852886
2023-05-09T01:47:32.893Z,50.852898
2023-05-09T01:48:32.849Z,50.852886
2023-05-09T01:49:32.862Z,50.852837
2023-05-09T01:50:32.824Z,50.852856
2023-05-09T01:51:32.842Z,50.852917
2023-05-09T01:52:32.835Z,50.852867
2023-05-09T01:53:32.824Z,50.852898
2023-05-09T01:54:32.797Z,50.852909
2023-05-09T01:55:32.823Z,50.852882
2023-05-09T01:56:32.787Z,50.852844
2023-05-09T01:57:32.792Z,50.852795
2023-05-09T01:58:32.877Z,50.852840
2023-05-09T01:59:32.790Z,50.852856
2023-05-09T02:00:32.753Z,50.852882
2023-05-09T02:01:32.764Z,50.852905
2023-05-09T02:02:32.816Z,50.852928
2023-05-09T02:03:32.791Z,50.852928
2023-05-09T02:04:32.735Z,50.852928
2023-05-09T02:05:32.725Z,50.852940
2023-05-09T02:06:32.760Z,50.852936
2023-05-09T02:07:32.767Z,50.852913
2023-05-09T02:08:32.718Z,50.852928
2023-05-09T02:09:32.742Z,50.852947
2023-05-09T02:10:32.686Z,50.852890
2023-05-09T02:11:32.725Z,50.852867
2023-05-09T02:12:32.694Z,50.852882
2023-05-09T02:13:32.695Z,50.852871
2023-05-09T02:14:32.777Z,50.852886
2023-05-09T02:15:33.072Z,50.852909
2023-05-09T02:16:32.681Z,50.852859
2023-05-09T02:17:32.659Z,50.852852
2023-05-09T02:18:32.750Z,50.852863
2023-05-09T02:19:32.651Z,50.852867
2023-05-09T02:20:32.634Z,50.852875
2023-05-09T02:21:32.670Z,50.852894
2023-05-09T02:22:32.606Z,50.852875
2023-05-09T02:23:32.611Z,50.852905
2023-05-09T02:24:32.594Z,50.852894
2023-05-09T02:25:32.611Z,50.852924
2023-05-09T02:26:32.599Z,50.852867
2023-05-09T02:27:32.609Z,50.852856
2023-05-09T02:28:32.562Z,50.852875
2023-05-09T02:29:32.573Z,50.852886
2023-05-09T02:30:32.667Z,50.852829
2023-05-09T02:31:32.602Z,50.852856
2023-05-09T02:32:32.624Z,50.852879
2023-05-09T02:33:32.546Z,50.852844
2023-05-09T02:34:32.519Z,50.852840
2023-05-09T02:35:32.582Z,50.852867
2023-05-09T02:36:32.521Z,50.852856
2023-05-09T02:37:32.624Z,50.852875
2023-05-09T02:38:32.526Z,50.852886
2023-05-09T02:39:32.518Z,50.852879
2023-05-09T02:40:32.502Z,50.852894
2023-05-09T02:41:32.503Z,50.852886
2023-05-09T02:42:32.491Z,50.852890
2023-05-09T02:43:32.505Z,50.852882
2023-05-09T02:44:32.452Z,50.852882
2023-05-09T02:45:32.467Z,50.852859
2023-05-09T02:46:32.616Z,50.852840
2023-05-09T02:47:32.471Z,50.852859
2023-05-09T02:48:32.427Z,50.852856
2023-05-09T02:49:32.897Z,50.852856
2023-05-09T02:50:32.436Z,50.852848
2023-05-09T02:51:32.446Z,50.852852
2023-05-09T02:52:32.419Z,50.852867
2023-05-09T02:53:32.410Z,50.852871
2023-05-09T02:54:32.387Z,50.852859
2023-05-09T02:55:32.391Z,50.852898
2023-05-09T02:56:32.411Z,50.852867
2023-05-09T02:57:32.407Z,50.852859
2023-05-09T02:58:32.369Z,50.852867
2023-05-09T02:59:32.382Z,50.852875
2023-05-09T03:00:32.400Z,50.852840
2023-05-09T03:01:32.424Z,50.852840
2023-05-09T03:02:32.532Z,50.852833
2023-05-09T03:03:32.421Z,50.852840
2023-05-09T03:04:32.352Z,50.852833
2023-05-09T03:05:32.360Z,50.852840
2023-05-09T03:06:32.307Z,50.852848
2023-05-09T03:07:32.351Z,50.852844
2023-05-09T03:08:32.341Z,50.852848
2023-05-09T03:09:32.309Z,50.852867
2023-05-09T03:10:32.294Z,50.852856
2023-05-09T03:11:32.336Z,50.852848
2023-05-09T03:12:32.306Z,50.852840
2023-05-09T03:13:32.280Z,50.852837
2023-05-09T03:14:32.287Z,50.852840
2023-05-09T03:15:32.285Z,50.852840
2023-05-09T03:16:32.273Z,50.852867
2023-05-09T03:17:32.318Z,50.852898
2023-05-09T03:18:32.335Z,50.852882
2023-05-09T03:19:32.255Z,50.852875
2023-05-09T03:20:32.229Z,50.852863
2023-05-09T03:21:32.251Z,50.852875
2023-05-09T03:22:32.212Z,50.852840
2023-05-09T03:23:32.263Z,50.852825
2023-05-09T03:24:32.218Z,50.852856
2023-05-09T03:25:32.593Z,50.852848
2023-05-09T03:26:32.201Z,50.852886
2023-05-09T03:27:32.198Z,50.852848
2023-05-09T03:28:32.178Z,50.852840
2023-05-09T03:29:32.188Z,50.852859
2023-05-09T03:30:32.197Z,50.852859
2023-05-09T03:31:32.256Z,50.852852
2023-05-09T03:32:32.200Z,50.852837
2023-05-09T03:33:32.170Z,50.852837
2023-05-09T03:34:32.238Z,50.852829
2023-05-09T03:35:32.215Z,50.852818
2023-05-09T03:36:32.165Z,50.852833
2023-05-09T03:37:32.167Z,50.852833
2023-05-09T03:38:32.208Z,50.852821
2023-05-09T03:39:32.122Z,50.852825
2023-05-09T03:40:32.118Z,50.852821
2023-05-09T03:41:32.134Z,50.852821
2023-05-09T03:42:32.143Z,50.852829
2023-05-09T03:43:32.127Z,50.852837
2023-05-09T03:44:32.094Z,50.852825
2023-05-09T03:45:32.093Z,50.852814
2023-05-09T03:46:32.176Z,50.852814
2023-05-09T03:47:32.142Z,50.852814
2023-05-09T03:48:32.078Z,50.852829
2023-05-09T03:49:32.055Z,50.852829
2023-05-09T03:50:32.124Z,50.852821
2023-05-09T03:51:32.055Z,50.852829
2023-05-09T03:52:32.057Z,50.852852
2023-05-09T03:53:32.081Z,50.852844
2023-05-09T03:54:32.015Z,50.852840
2023-05-09T03:55:32.054Z,50.852810
2023-05-09T03:56:32.022Z,50.852825
2023-05-09T03:57:32.063Z,50.852833
2023-05-09T03:58:32.010Z,50.852840
2023-05-09T03:59:32.007Z,50.852829
2023-05-09T04:00:32.001Z,50.852810
2023-05-09T04:01:32.018Z,50.852825
2023-05-09T04:02:32.128Z,50.852837
2023-05-09T04:03:32.141Z,50.852840
2023-05-09T04:04:31.955Z,50.852821
2023-05-09T04:05:32.053Z,50.852818
2023-05-09T04:06:32.044Z,50.852837
2023-05-09T04:07:31.992Z,50.852806
2023-05-09T04:08:31.931Z,50.852810
2023-05-09T04:09:31.951Z,50.852818
2023-05-09T04:10:31.926Z,50.852837
2023-05-09T04:11:31.951Z,50.852810
2023-05-09T04:12:31.924Z,50.852818
2023-05-09T04:13:31.979Z,50.852833
2023-05-09T04:14:31.912Z,50.852844
2023-05-09T04:15:31.913Z,50.852848
2023-05-09T04:16:31.918Z,50.852856
2023-05-09T04:17:31.905Z,50.852863
2023-05-09T04:18:31.891Z,50.852844
2023-05-09T04:19:31.927Z,50.852818
2023-05-09T04:20:31.848Z,50.852837
2023-05-09T04:21:31.879Z,50.852848
2023-05-09T04:22:31.936Z,50.852840
2023-05-09T04:23:31.857Z,50.852818
2023-05-09T04:24:31.851Z,50.852806
2023-05-09T04:25:31.851Z,50.852833
2023-05-09T04:26:31.811Z,50.852802
2023-05-09T04:27:31.819Z,50.852795
2023-05-09T04:28:31.827Z,50.852806
2023-05-09T04:29:31.792Z,50.852795
2023-05-09T04:30:31.816Z,50.852764
2023-05-09T04:31:31.832Z,50.852791
2023-05-09T04:32:31.850Z,50.852779
2023-05-09T04:33:31.768Z,50.852776
2023-05-09T04:34:31.770Z,50.852779
2023-05-09T04:35:31.761Z,50.852783
2023-05-09T04:36:31.735Z,50.852776
2023-05-09T04:37:31.775Z,50.852798
2023-05-09T04:38:31.856Z,50.852798
2023-05-09T04:39:31.719Z,50.852768
2023-05-09T04:40:31.714Z,50.852757
2023-05-09T04:41:31.729Z,50.852764
2023-05-09T04:42:31.690Z,50.852776
2023-05-09T04:43:31.733Z,50.852783
2023-05-09T04:44:31.687Z,50.852787
2023-05-09T04:45:31.708Z,50.852806
2023-05-09T04:46:31.692Z,50.852791
2023-05-09T04:47:31.694Z,50.852806
2023-05-09T04:48:31.705Z,50.852787
2023-05-09T04:49:31.759Z,50.852764
2023-05-09T04:50:31.655Z,50.852776
2023-05-09T04:51:31.755Z,50.852779
2023-05-09T04:52:31.649Z,50.852764
2023-05-09T04:53:31.620Z,50.852768
2023-05-09T04:54:31.696Z,50.852768
2023-05-09T04:55:31.605Z,50.852768
2023-05-09T04:56:31.584Z,50.852757
2023-05-09T04:57:31.610Z,50.852741
2023-05-09T04:58:31.671Z,50.852768
2023-05-09T04:59:31.579Z,50.852749
2023-05-09T05:00:31.578Z,50.852745
2023-05-09T05:01:31.609Z,50.852745
2023-05-09T05:02:31.597Z,50.852726
2023-05-09T05:03:31.580Z,50.852737
2023-05-09T05:04:31.551Z,50.852745
2023-05-09T05:05:33.674Z,50.852737
2023-05-09T05:06:31.508Z,50.852745
2023-05-09T05:07:31.520Z,50.852749
2023-05-09T05:08:31.513Z,50.852760
2023-05-09T05:09:31.521Z,50.852737
2023-05-09T05:10:31.574Z,50.852703
2023-05-09T05:11:31.504Z,50.852707
2023-05-09T05:12:31.511Z,50.852711
2023-05-09T05:13:31.483Z,50.852730
2023-05-09T05:14:31.458Z,50.852730
2023-05-09T05:15:31.464Z,50.852722
2023-05-09T05:16:31.459Z,50.852703
2023-05-09T05:17:31.490Z,50.852695
2023-05-09T05:18:31.451Z,50.852718
2023-05-09T05:19:31.455Z,50.852730
2023-05-09T05:20:31.402Z,50.852745
2023-05-09T05:21:31.448Z,50.852741
2023-05-09T05:22:32.766Z,50.852749
2023-05-09T05:23:31.401Z,50.852749
2023-05-09T05:24:31.398Z,50.852726
2023-05-09T05:25:31.426Z,50.852699
2023-05-09T05:26:31.461Z,50.852703
2023-05-09T05:27:31.362Z,50.852745
2023-05-09T05:28:31.608Z,50.852726
2023-05-09T05:29:31.351Z,50.852760
2023-05-09T05:30:34.016Z,50.852726
2023-05-09T05:31:31.384Z,50.852741
2023-05-09T05:32:31.351Z,50.852757
2023-05-09T05:33:31.308Z,50.852734
2023-05-09T05:34:31.325Z,50.852745
2023-05-09T05:35:31.296Z,50.852745
2023-05-09T05:36:31.272Z,50.852757
2023-05-09T05:37:31.307Z,50.852737
2023-05-09T05:38:31.260Z,50.852730
2023-05-09T05:39:31.289Z,50.852703
2023-05-09T05:40:31.268Z,50.852695
2023-05-09T05:41:31.251Z,50.852688
2023-05-09T05:42:31.313Z,50.852707
2023-05-09T05:43:31.227Z,50.852734
2023-05-09T05:44:31.260Z,50.852737
2023-05-09T05:45:31.301Z,50.852764
2023-05-09T05:46:31.230Z,50.852749
2023-05-09T05:47:31.252Z,50.852730
2023-05-09T05:48:31.253Z,50.852753
2023-05-09T05:49:31.218Z,50.852760
2023-05-09T05:50:31.217Z,50.852745
2023-05-09T05:51:31.196Z,50.852741
2023-05-09T05:52:31.181Z,50.852783
2023-05-09T05:53:32.684Z,50.852772
2023-05-09T05:54:31.146Z,50.852772
2023-05-09T05:55:31.155Z,50.852764
2023-05-09T05:56:31.134Z,50.852760
2023-05-09T05:57:31.176Z,50.852753
2023-05-09T05:58:31.208Z,50.852760
2023-05-09T05:59:31.198Z,50.852753
2023-05-09T06:00:31.076Z,50.852741
2023-05-09T06:01:31.106Z,50.852741
2023-05-09T06:02:31.339Z,50.852779
2023-05-09T06:03:31.295Z,50.852783
2023-05-09T06:04:31.059Z,50.852757
2023-05-09T06:05:31.066Z,50.852757
2023-05-09T06:06:31.067Z,50.852776
2023-05-09T06:07:31.042Z,50.852749
2023-05-09T06:08:31.062Z,50.852760
2023-05-09T06:09:31.054Z,50.852745
2023-05-09T06:10:30.999Z,50.852768
2023-05-09T06:11:31.008Z,50.852772
2023-05-09T06:12:31.019Z,50.852776
2023-05-09T06:13:31.008Z,50.852745
2023-05-09T06:14:31.058Z,50.852787
2023-05-09T06:15:31.004Z,50.852787
2023-05-09T06:16:31.037Z,50.852787
2023-05-09T06:17:30.973Z,50.852768
2023-05-09T06:18:30.931Z,50.852768
2023-05-09T06:19:30.993Z,50.852768
2023-05-09T06:20:30.926Z,50.852776
2023-05-09T06:21:30.924Z,50.852768
2023-05-09T06:22:30.929Z,50.852798
2023-05-09T06:23:30.904Z,50.852779
2023-05-09T06:24:35.835Z,50.852764
2023-05-09T06:25:31.913Z,50.852787
2023-05-09T06:26:30.867Z,50.852764
2023-05-09T06:27:30.904Z,50.852806
2023-05-09T06:28:30.884Z,50.852791
2023-05-09T06:29:30.887Z,50.852798
2023-05-09T06:30:30.929Z,50.852825
2023-05-09T06:31:30.930Z,50.852818
2023-05-09T06:32:30.893Z,50.852810
2023-05-09T06:33:30.832Z,50.852776
2023-05-09T06:34:30.840Z,50.852776
2023-05-09T06:35:30.815Z,50.852798
2023-05-09T06:36:30.840Z,50.852802
2023-05-09T06:37:30.806Z,50.852837
2023-05-09T06:38:30.801Z,50.852802
2023-05-09T06:39:30.828Z,50.852802
2023-05-09T06:40:30.782Z,50.852798
2023-05-09T06:41:30.799Z,50.852802
2023-05-09T06:42:30.752Z,50.852825
2023-05-09T06:43:30.759Z,50.852814
2023-05-09T06:44:30.731Z,50.852791
2023-05-09T06:45:30.771Z,50.852741
2023-05-09T06:46:30.899Z,50.852753
2023-05-09T06:47:30.766Z,50.852768
2023-05-09T06:48:30.713Z,50.852764
2023-05-09T06:49:30.761Z,50.852745
2023-05-09T06:50:32.835Z,50.852779
2023-05-09T06:51:30.704Z,50.852772
2023-05-09T06:52:30.683Z,50.852776
2023-05-09T06:53:30.690Z,50.852776
2023-05-09T06:54:30.691Z,50.852795
2023-05-09T06:55:30.673Z,50.852772
2023-05-09T06:56:30.659Z,50.852768
2023-05-09T06:57:30.673Z,50.852764
2023-05-09T06:58:30.643Z,50.852776
2023-05-09T06:59:30.687Z,50.852783
2023-05-09T07:00:30.639Z,50.852791
2023-05-09T07:01:30.655Z,50.852802
2023-05-09T07:02:30.750Z,50.852776
2023-05-09T07:03:30.641Z,50.852772
2023-05-09T07:04:30.606Z,50.852749
2023-05-09T07:05:30.632Z,50.852848
2023-05-09T07:06:30.587Z,50.852821
2023-05-09T07:07:30.604Z,50.852730
2023-05-09T07:08:30.634Z,50.852768
2023-05-09T07:09:30.589Z,50.852787
2023-05-09T07:10:30.568Z,50.852787
2023-05-09T07:11:30.568Z,50.852825
2023-05-09T07:12:30.541Z,50.852810
2023-05-09T07:13:30.594Z,50.852787
2023-05-09T07:14:30.546Z,50.852745
2023-05-09T07:15:41.103Z,50.852764
2023-05-09T07:16:31.589Z,50.852787
2023-05-09T07:17:30.562Z,50.852791
2023-05-09T07:18:30.615Z,50.852810
2023-05-09T07:19:30.554Z,50.852795
2023-05-09T07:20:30.489Z,50.852806
2023-05-09T07:21:30.504Z,50.852810
2023-05-09T07:22:32.140Z,50.852779
2023-05-09T07:23:30.510Z,50.852814
2023-05-09T07:24:30.463Z,50.852810
2023-05-09T07:25:30.479Z,50.852783
2023-05-09T07:26:30.485Z,50.852802
2023-05-09T07:27:30.475Z,50.852768
2023-05-09T07:28:30.501Z,50.852776
2023-05-09T07:29:30.453Z,50.852768
2023-05-09T07:30:30.449Z,50.852776
2023-05-09T07:31:30.445Z,50.852779
2023-05-09T07:32:30.460Z,50.852802
2023-05-09T07:33:30.427Z,50.852802
2023-05-09T07:34:30.562Z,50.852806
2023-05-09T07:35:30.425Z,50.852772
2023-05-09T07:36:30.477Z,50.852787
2023-05-09T07:37:30.407Z,50.852779
2023-05-09T07:38:30.372Z,50.852779
2023-05-09T07:39:30.401Z,50.852810
2023-05-09T07:40:30.369Z,50.852791
2023-05-09T07:41:30.371Z,50.852783
2023-05-09T07:42:30.423Z,50.852791
2023-05-09T07:43:30.348Z,50.852795
2023-05-09T07:44:30.341Z,50.852798
2023-05-09T07:45:30.377Z,50.852795
2023-05-09T07:46:30.392Z,50.852783
2023-05-09T07:47:30.361Z,50.852783
2023-05-09T07:48:30.321Z,50.852776
2023-05-09T07:49:30.324Z,50.852798
2023-05-09T07:50:31.050Z,50.852818
2023-05-09T07:51:30.303Z,50.852818
2023-05-09T07:52:30.306Z,50.852798
2023-05-09T07:53:30.302Z,50.852798
2023-05-09T07:54:30.259Z,50.852825
2023-05-09T07:55:30.279Z,50.852818
2023-05-09T07:56:30.258Z,50.852840
2023-05-09T07:57:30.264Z,50.852844
2023-05-09T07:58:30.268Z,50.852829
2023-05-09T07:59:30.253Z,50.852840
2023-05-09T08:00:31.049Z,50.852833
2023-05-09T08:01:30.241Z,50.852859
2023-05-09T08:02:30.283Z,50.852859
2023-05-09T08:03:30.304Z,50.852863
2023-05-09T08:04:30.259Z,50.852848
2023-05-09T08:05:30.208Z,50.852848
2023-05-09T08:06:30.278Z,50.852886
2023-05-09T08:07:30.222Z,50.852821
2023-05-09T08:08:30.188Z,50.852787
2023-05-09T08:09:30.179Z,50.852825
2023-05-09T08:10:30.158Z,50.852814
2023-05-09T08:11:30.189Z,50.852806
2023-05-09T08:12:30.139Z,50.852787
2023-05-09T08:13:30.238Z,50.852810
2023-05-09T08:14:30.124Z,50.852848
2023-05-09T08:15:30.147Z,50.852882
2023-05-09T08:16:30.263Z,50.852844
2023-05-09T08:17:30.197Z,50.852829
2023-05-09T08:18:30.095Z,50.852882
2023-05-09T08:19:30.126Z,50.852901
2023-05-09T08:20:30.081Z,50.852833
2023-05-09T08:21:30.102Z,50.852802
2023-05-09T08:22:30.167Z,50.852776
2023-05-09T08:23:30.091Z,50.852768
2023-05-09T08:24:30.069Z,50.852795
2023-05-09T08:25:30.212Z,50.852802
2023-05-09T08:26:30.045Z,50.852787
2023-05-09T08:27:30.057Z,50.852760
2023-05-09T08:28:30.056Z,50.852814
2023-05-09T08:29:30.070Z,50.852783
2023-05-09T08:30:30.018Z,50.852810
2023-05-09T08:31:30.116Z,50.852825
2023-05-09T08:32:30.045Z,50.852772
2023-05-09T08:33:30.015Z,50.852798
2023-05-09T08:34:29.992Z,50.852924
2023-05-09T08:35:30.041Z,50.852917
2023-05-09T08:36:29.989Z,50.852879
2023-05-09T08:37:30.029Z,50.852875
2023-05-09T08:38:30.052Z,50.852776
2023-05-09T08:39:30.032Z,50.852818
2023-05-09T08:40:29.982Z,50.852802
2023-05-09T08:41:29.963Z,50.852814
2023-05-09T08:42:29.942Z,50.852783
2023-05-09T08:43:29.948Z,50.852879
2023-05-09T08:44:29.932Z,50.852814
2023-05-09T08:45:30.038Z,50.852787
2023-05-09T08:46:29.987Z,50.852810
2023-05-09T08:47:29.963Z,50.852825
2023-05-09T08:48:29.922Z,50.852825
2023-05-09T08:49:29.938Z,50.852806
2023-05-09T08:50:29.902Z,50.852798
2023-05-09T08:51:29.905Z,50.852840
2023-05-09T08:52:29.910Z,50.852772
2023-05-09T08:53:29.915Z,50.852753
2023-05-09T08:54:29.983Z,50.852779
2023-05-09T08:55:29.881Z,50.852760
2023-05-09T08:56:29.837Z,50.852757
2023-05-09T08:57:29.852Z,50.852776
2023-05-09T08:58:29.824Z,50.852760
2023-05-09T08:59:29.856Z,50.852753
2023-05-09T09:00:29.812Z,50.852787
2023-05-09T09:01:29.861Z,50.852787
2023-05-09T09:02:29.893Z,50.852798
2023-05-09T09:03:29.843Z,50.852791
2023-05-09T09:04:29.839Z,50.852798
2023-05-09T09:06:29.798Z,50.852802
2023-05-09T09:07:31.171Z,50.852768
2023-05-09T09:08:29.778Z,50.852772
2023-05-09T09:09:29.765Z,50.852810
2023-05-09T09:10:29.905Z,50.852791
2023-05-09T09:11:29.766Z,50.852810
2023-05-09T09:12:29.733Z,50.852787
2023-05-09T09:13:29.826Z,50.852810
2023-05-09T09:14:29.720Z,50.852806
2023-05-09T09:15:29.753Z,50.852783
2023-05-09T09:16:29.752Z,50.852753
2023-05-09T09:17:29.741Z,50.852776
2023-05-09T09:18:29.686Z,50.852783
2023-05-09T09:19:29.704Z,50.852806
2023-05-09T09:20:29.692Z,50.852806
2023-05-09T09:21:29.703Z,50.852764
2023-05-09T09:22:29.666Z,50.852791
2023-05-09T09:23:29.683Z,50.852757
2023-05-09T09:24:29.652Z,50.852753
2023-05-09T09:25:29.679Z,50.852779
2023-05-09T09:26:29.731Z,50.852779
2023-05-09T09:27:29.636Z,50.852757
2023-05-09T09:28:29.681Z,50.852749
2023-05-09T09:29:29.637Z,50.852753
2023-05-09T09:30:29.596Z,50.852753
2023-05-09T09:31:29.618Z,50.852764
2023-05-09T09:32:29.603Z,50.852772
2023-05-09T09:33:29.639Z,50.852757
2023-05-09T09:34:29.577Z,50.852776
2023-05-09T09:35:29.597Z,50.852779
2023-05-09T09:36:29.575Z,50.852783
2023-05-09T09:37:29.593Z,50.852787
2023-05-09T09:38:29.541Z,50.852783
2023-05-09T09:39:29.572Z,50.852783
2023-05-09T09:40:29.544Z,50.852791
2023-05-09T09:41:29.576Z,50.852798
2023-05-09T09:42:29.656Z,50.852806
2023-05-09T09:43:29.560Z,50.852795
2023-05-09T09:44:29.502Z,50.852776
2023-05-09T09:45:29.512Z,50.852795
2023-05-09T09:46:29.520Z,50.852798
2023-05-09T09:47:29.517Z,50.852779
2023-05-09T09:48:29.497Z,50.852798
2023-05-09T09:49:29.492Z,50.852757
2023-05-09T09:50:29.468Z,50.852741
2023-05-09T09:51:29.463Z,50.852764
2023-05-09T09:52:29.454Z,50.852757
2023-05-09T09:53:29.487Z,50.852776
2023-05-09T09:54:29.476Z,50.852783
2023-05-09T09:55:29.444Z,50.852779
2023-05-09T09:56:29.429Z,50.852768
2023-05-09T09:57:29.442Z,50.852753
2023-05-09T09:58:29.532Z,50.852753
2023-05-09T09:59:29.451Z,50.852772
2023-05-09T10:00:29.392Z,50.852772
2023-05-09T10:01:29.481Z,50.852760
2023-05-09T10:02:29.384Z,50.852787
2023-05-09T10:03:29.416Z,50.852791
2023-05-09T10:04:29.352Z,50.852798
2023-05-09T10:05:29.404Z,50.852802
2023-05-09T10:06:29.343Z,50.852787
2023-05-09T10:07:29.369Z,50.852783
2023-05-09T10:08:29.351Z,50.852833
2023-05-09T10:09:29.353Z,50.852825
2023-05-09T10:10:29.314Z,50.852814
2023-05-09T10:11:29.360Z,50.852806
2023-05-09T10:12:29.313Z,50.852837
2023-05-09T10:13:29.378Z,50.852840
2023-05-09T10:14:29.375Z,50.852844
2023-05-09T10:15:33.459Z,50.852821
2023-05-09T10:16:40.135Z,50.852806
2023-05-09T10:17:30.430Z,50.852779
2023-05-09T10:18:29.511Z,50.852791
2023-05-09T10:19:29.275Z,50.852787
2023-05-09T10:20:29.246Z,50.852802
2023-05-09T10:21:29.285Z,50.852795
2023-05-09T10:22:29.239Z,50.852787
2023-05-09T10:23:29.238Z,50.852764
2023-05-09T10:24:29.224Z,50.852776
2023-05-09T10:25:29.225Z,50.852772
2023-05-09T10:26:29.251Z,50.852764
2023-05-09T10:27:29.234Z,50.852768
2023-05-09T10:28:29.186Z,50.852791
2023-05-09T10:29:29.229Z,50.852741
2023-05-09T10:30:29.383Z,50.852806
2023-05-09T10:31:29.530Z,50.852757
2023-05-09T10:32:29.162Z,50.852764
2023-05-09T10:33:29.173Z,50.852779
2023-05-09T10:34:29.174Z,50.852814
2023-05-09T10:35:29.161Z,50.852768
2023-05-09T10:36:29.138Z,50.852783
2023-05-09T10:37:29.584Z,50.852795
2023-05-09T10:38:29.131Z,50.852829
2023-05-09T10:39:29.171Z,50.852810
2023-05-09T10:40:29.097Z,50.852798
2023-05-09T10:41:29.106Z,50.852814
2023-05-09T10:42:29.094Z,50.852787
2023-05-09T10:43:29.467Z,50.852798
2023-05-09T10:44:29.081Z,50.852776
2023-05-09T10:45:29.116Z,50.852764
2023-05-09T10:46:29.188Z,50.852772
2023-05-09T10:47:29.116Z,50.852787
2023-05-09T10:48:29.046Z,50.852802
2023-05-09T10:49:29.051Z,50.852776
2023-05-09T10:50:29.021Z,50.852768
2023-05-09T10:51:29.097Z,50.852791
2023-05-09T10:52:29.014Z,50.852760
2023-05-09T10:53:29.033Z,50.852791
2023-05-09T10:54:30.899Z,50.852802
2023-05-09T10:55:29.022Z,50.852776
2023-05-09T10:56:29.014Z,50.852779
2023-05-09T10:57:29.032Z,50.852760
2023-05-09T10:58:28.987Z,50.852745
2023-05-09T10:59:28.988Z,50.852772
2023-05-09T11:00:28.967Z,50.852768
2023-05-09T11:01:29.025Z,50.852768
2023-05-09T11:02:29.137Z,50.852757
2023-05-09T11:03:29.042Z,50.852726
2023-05-09T11:04:28.980Z,50.852718
2023-05-09T11:05:28.970Z,50.852760
2023-05-09T11:06:28.940Z,50.852779
2023-05-09T11:07:28.932Z,50.852753
2023-05-09T11:08:28.935Z,50.852787
2023-05-09T11:09:28.948Z,50.852779
2023-05-09T11:10:28.890Z,50.852776
2023-05-09T11:11:28.918Z,50.852798
2023-05-09T11:12:28.888Z,50.852798
2023-05-09T11:13:28.928Z,50.852802
2023-05-09T11:14:28.881Z,50.852753
2023-05-09T11:15:28.895Z,50.852776
2023-05-09T11:16:28.907Z,50.852768
2023-05-09T11:17:28.901Z,50.852818
2023-05-09T11:18:28.933Z,50.852783
2023-05-09T11:19:28.848Z,50.852730
2023-05-09T11:20:28.824Z,50.852722
2023-05-09T11:21:28.856Z,50.852760
2023-05-09T11:22:28.838Z,50.852737
2023-05-09T11:23:28.826Z,50.852798
2023-05-09T11:24:28.803Z,50.852783
2023-05-09T11:25:28.848Z,50.852783